Time;durP1;ratioP1;P1;durP2;ratioP2;P2;SDS_P1;SDS_P2;PMS_P1;PMS_P2;Temp;Humidity;BMP_temperature;BMP_pressure;BME280_temperature;BME280_humidity;BME280_pressure;Samples;Min_cycle;Max_cycle;Signal;HPM_P1;HPM_P2
2021/08/02 00:01:02;;;;;;;6.80;1.63;;;13.60;99.90;;;;;;4934965;29;20032;-92
2021/08/02 00:03:38;;;;;;;2.63;1.50;;;13.50;99.90;;;;;;4935133;29;20039;-93
2021/08/02 00:06:08;;;;;;;4.20;1.55;;;13.50;99.90;;;;;;4934842;29;20035;-92
2021/08/02 00:08:34;;;;;;;3.35;1.70;;;13.50;99.90;;;;;;4934837;29;20474;-93
2021/08/02 00:11:00;;;;;;;4.68;1.63;;;13.50;99.90;;;;;;4934929;29;20036;-91
2021/08/02 00:13:31;;;;;;;2.35;1.48;;;13.50;99.90;;;;;;4935412;29;20083;-92
2021/08/02 00:15:58;;;;;;;;;;;13.50;99.90;;;;;;4936829;29;20482;-91
2021/08/02 00:18:28;;;;;;;5.75;1.58;;;13.50;99.90;;;;;;4934617;29;20308;-92
2021/08/02 00:20:56;;;;;;;3.45;1.50;;;13.50;99.90;;;;;;4935260;29;20470;-93
2021/08/02 00:23:25;;;;;;;3.58;1.50;;;13.50;99.90;;;;;;4934749;29;20028;-94
2021/08/02 00:25:55;;;;;;;2.65;1.50;;;13.50;99.90;;;;;;4934824;29;20032;-93
2021/08/02 00:28:22;;;;;;;4.28;1.80;;;13.40;99.90;;;;;;4934627;29;20609;-93
2021/08/02 00:30:48;;;;;;;6.13;1.58;;;13.40;99.90;;;;;;4934206;29;20035;-93
2021/08/02 00:33:14;;;;;;;4.22;2.00;;;13.30;99.90;;;;;;4934229;29;20858;-93
2021/08/02 00:36:06;;;;;;;6.47;1.67;;;13.30;99.90;;;;;;4934357;29;20055;-93
2021/08/02 00:39:00;;;;;;;4.97;1.60;;;13.30;99.90;;;;;;4934551;29;20030;-92
2021/08/02 00:41:58;;;;;;;3.28;1.50;;;13.30;99.90;;;;;;4937303;29;20142;-93
2021/08/02 00:44:49;;;;;;;6.05;1.23;;;13.30;99.90;;;;;;4938284;29;20496;-93
2021/08/02 00:47:22;;;;;;;6.63;1.42;;;13.20;99.90;;;;;;4938200;29;20389;-93
2021/08/02 00:49:52;;;;;;;6.28;1.75;;;13.20;99.90;;;;;;4938348;29;20054;-93
2021/08/02 00:52:22;;;;;;;6.30;1.55;;;13.20;99.90;;;;;;4938554;29;20039;-94
2021/08/02 00:54:49;;;;;;;5.40;1.33;;;13.20;99.90;;;;;;4938434;29;20039;-94
2021/08/02 00:57:18;;;;;;;5.85;1.35;;;13.20;99.90;;;;;;4938485;29;20067;-95
2021/08/02 00:59:44;;;;;;;5.40;1.63;;;13.20;99.90;;;;;;4938230;29;20111;-95
2021/08/02 01:02:11;;;;;;;3.95;1.40;;;13.20;99.90;;;;;;4937637;29;20028;-94
2021/08/02 01:04:37;;;;;;;3.13;1.50;;;13.10;99.90;;;;;;4937582;29;20024;-93
2021/08/02 01:07:08;;;;;;;3.70;1.45;;;13.10;99.90;;;;;;4937648;29;20059;-94
2021/08/02 01:09:39;;;;;;;7.03;1.50;;;13.10;99.90;;;;;;4937203;29;20494;-93
2021/08/02 01:12:09;;;;;;;2.75;1.10;;;13.10;99.90;;;;;;4937657;29;20035;-93
2021/08/02 01:14:36;;;;;;;3.88;1.50;;;13.10;99.90;;;;;;4937942;29;20091;-94
2021/08/02 01:17:03;;;;;;;5.55;1.48;;;13.00;99.90;;;;;;4937826;29;20028;-95
2021/08/02 01:19:29;;;;;;;5.60;1.65;;;13.00;99.90;;;;;;4937347;29;20036;-94
2021/08/02 01:21:59;;;;;;;3.47;1.35;;;13.00;99.90;;;;;;4937513;29;20028;-94
2021/08/02 01:24:25;;;;;;;7.15;1.88;;;13.00;99.90;;;;;;4937841;29;20079;-94
2021/08/02 01:26:57;;;;;;;3.05;1.48;;;12.90;99.90;;;;;;4937351;29;20067;-94
2021/08/02 01:30:00;;;;;;;5.82;1.70;;;12.90;99.90;;;;;;4940032;29;20039;-94
2021/08/02 01:32:26;;;;;;;3.22;1.20;;;12.90;99.90;;;;;;4954347;29;20082;-94
2021/08/02 01:34:52;;;;;;;8.43;1.60;;;12.90;99.90;;;;;;4937771;29;20426;-94
2021/08/02 01:37:18;;;;;;;2.55;1.25;;;12.80;99.90;;;;;;4938879;29;20024;-95
2021/08/02 01:39:51;;;;;;;4.32;1.25;;;12.80;99.90;;;;;;4937288;29;20441;-95
2021/08/02 01:42:17;;;;;;;7.07;1.42;;;12.80;99.90;;;;;;4937516;29;20028;-95
2021/08/02 01:44:42;;;;;;;3.75;1.15;;;12.80;99.90;;;;;;4938115;29;20054;-94
2021/08/02 01:47:24;;;;;;;10.55;3.67;;;12.70;99.90;;;;;;4937621;29;20024;-94
2021/08/02 01:50:01;;;;;;;4.10;1.52;;;12.70;99.90;;;;;;4937682;29;20042;-94
2021/08/02 01:52:35;;;;;;;2.83;1.50;;;12.70;99.90;;;;;;4937162;29;20023;-94
2021/08/02 01:55:09;;;;;;;3.78;1.30;;;12.60;99.90;;;;;;4938640;29;20035;-93
2021/08/02 01:57:48;;;;;;;6.85;1.73;;;12.60;99.90;;;;;;4945290;29;20046;-93
2021/08/02 02:00:14;;;;;;;5.13;1.48;;;12.60;99.90;;;;;;4945136;29;20039;-93
2021/08/02 02:02:45;;;;;;;4.78;1.80;;;12.50;99.90;;;;;;4948873;29;20027;-93
2021/08/02 02:05:17;;;;;;;3.70;1.50;;;12.50;99.90;;;;;;4947903;29;20027;-93
2021/08/02 02:07:51;;;;;;;8.40;2.00;;;12.40;99.90;;;;;;4947469;29;20117;-94
2021/08/02 02:10:19;;;;;;;4.35;1.65;;;12.40;99.90;;;;;;4946538;29;20030;-91
2021/08/02 02:12:47;;;;;;;8.65;1.88;;;12.40;99.90;;;;;;4943344;29;20068;-92
2021/08/02 02:15:13;;;;;;;6.38;1.67;;;12.30;99.90;;;;;;4942863;29;20560;-93
2021/08/02 02:17:40;;;;;;;8.02;1.70;;;12.30;99.90;;;;;;4939050;29;20048;-94
2021/08/02 02:20:07;;;;;;;7.03;1.90;;;12.20;99.90;;;;;;4937587;29;20032;-93
2021/08/02 02:22:35;;;;;;;8.52;1.63;;;12.20;99.90;;;;;;4937221;29;20031;-93
2021/08/02 02:25:01;;;;;;;7.95;2.78;;;12.10;99.90;;;;;;4937053;29;20074;-93
2021/08/02 02:27:28;;;;;;;4.32;1.73;;;12.10;99.90;;;;;;4937603;29;20036;-92
2021/08/02 02:29:55;;;;;;;6.45;1.70;;;12.00;99.90;;;;;;4937316;29;20027;-93
2021/08/02 02:32:24;;;;;;;5.75;2.20;;;12.00;99.90;;;;;;4937807;29;20028;-94
2021/08/02 02:34:51;;;;;;;2.50;1.65;;;12.00;99.90;;;;;;4940815;29;20023;-93
2021/08/02 02:37:18;;;;;;;4.70;2.08;;;11.90;99.90;;;;;;4943749;29;20628;-94
2021/08/02 02:39:45;;;;;;;5.20;2.00;;;11.90;99.90;;;;;;4942287;29;20031;-94
2021/08/02 02:42:11;;;;;;;5.25;1.52;;;11.90;99.90;;;;;;4936381;29;20035;-96
2021/08/02 02:44:37;;;;;;;4.82;1.85;;;11.90;99.90;;;;;;4935920;29;20051;-95
2021/08/02 02:47:05;;;;;;;7.07;1.83;;;11.80;99.90;;;;;;4936424;29;20510;-94
2021/08/02 02:49:31;;;;;;;5.55;1.70;;;11.80;99.90;;;;;;4938591;29;20055;-94
2021/08/02 02:51:58;;;;;;;4.20;1.80;;;11.80;99.90;;;;;;4937230;29;20024;-94
2021/08/02 02:54:26;;;;;;;3.97;1.55;;;11.80;99.90;;;;;;4936173;29;20493;-94
2021/08/02 02:56:55;;;;;;;5.55;1.90;;;11.80;99.90;;;;;;4936207;29;20031;-94
2021/08/02 02:59:20;;;;;;;3.30;1.55;;;11.70;99.90;;;;;;4936008;29;20031;-92
2021/08/02 03:01:49;;;;;;;4.85;1.90;;;11.70;99.90;;;;;;4935972;29;20055;-93
2021/08/02 03:04:17;;;;;;;5.60;1.80;;;11.70;99.90;;;;;;4936101;29;20082;-92
2021/08/02 03:06:44;;;;;;;8.52;1.70;;;11.60;99.90;;;;;;4936370;29;20059;-92
2021/08/02 03:09:13;;;;;;;4.97;1.80;;;11.60;99.90;;;;;;4936283;29;20161;-93
2021/08/02 03:11:40;;;;;;;4.15;2.03;;;11.60;99.90;;;;;;4936088;29;20079;-92
2021/08/02 03:14:06;;;;;;;3.15;1.65;;;11.60;99.90;;;;;;4936107;29;20031;-92
2021/08/02 03:16:32;;;;;;;3.70;1.92;;;11.50;99.90;;;;;;4936312;29;20038;-93
2021/08/02 03:18:58;;;;;;;3.10;1.85;;;11.50;99.90;;;;;;4935981;29;20082;-94
2021/08/02 03:21:24;;;;;;;6.38;2.22;;;11.50;99.90;;;;;;4935726;29;20075;-93
2021/08/02 03:24:17;;;;;;;8.10;2.00;;;11.50;99.90;;;;;;4935986;29;20536;-93
2021/08/02 03:26:46;;;;;;;7.50;2.05;;;11.40;99.90;;;;;;4936367;29;20035;-94
2021/08/02 03:29:19;;;;;;;6.55;1.98;;;11.40;99.90;;;;;;4936714;29;20031;-93
2021/08/02 03:31:55;;;;;;;4.90;2.00;;;11.40;99.90;;;;;;4937066;29;20060;-94
2021/08/02 03:34:25;;;;;;;3.63;1.90;;;11.30;99.90;;;;;;4936790;29;20059;-94
2021/08/02 03:36:52;;;;;;;5.18;2.10;;;11.30;99.90;;;;;;4950471;28;20032;-92
2021/08/02 03:39:21;;;;;;;7.82;2.40;;;11.20;99.90;;;;;;4958604;28;20096;-94
2021/08/02 03:41:48;;;;;;;4.60;1.88;;;11.20;99.90;;;;;;4959103;28;20012;-93
2021/08/02 03:44:16;;;;;;;3.03;1.98;;;11.20;99.90;;;;;;4958881;28;20054;-94
2021/08/02 03:46:42;;;;;;;3.47;2.10;;;11.10;99.90;;;;;;4958992;28;20019;-94
2021/08/02 03:49:08;;;;;;;8.13;2.28;;;11.10;99.90;;;;;;4956688;28;20020;-94
2021/08/02 03:51:35;;;;;;;5.50;2.33;;;11.10;99.90;;;;;;4936251;29;20028;-93
2021/08/02 03:54:02;;;;;;;3.03;1.85;;;11.10;99.90;;;;;;4935877;29;20444;-93
2021/08/02 03:56:28;;;;;;;5.20;2.35;;;11.00;99.90;;;;;;4935522;29;20028;-94
2021/08/02 03:58:53;;;;;;;3.38;1.90;;;11.00;99.90;;;;;;4935280;29;20023;-95
2021/08/02 04:01:19;;;;;;;6.93;2.40;;;11.00;99.90;;;;;;4935173;29;20048;-92
2021/08/02 04:03:44;;;;;;;7.88;2.22;;;11.00;99.90;;;;;;4935020;29;20126;-93
2021/08/02 04:06:10;;;;;;;8.23;2.33;;;11.00;99.90;;;;;;4936382;29;20090;-94
2021/08/02 04:08:36;;;;;;;4.63;1.85;;;11.00;99.90;;;;;;4937205;29;20028;-92
2021/08/02 04:11:02;;;;;;;5.60;1.70;;;11.00;99.90;;;;;;4936299;29;20550;-93
2021/08/02 04:13:28;;;;;;;3.70;2.10;;;10.90;99.90;;;;;;4937225;29;20023;-93
2021/08/02 04:15:54;;;;;;;6.10;2.10;;;10.90;99.90;;;;;;4940220;29;20046;-93
2021/08/02 04:18:19;;;;;;;2.50;1.90;;;10.90;99.90;;;;;;4939212;29;20024;-93
2021/08/02 04:20:45;;;;;;;4.60;1.80;;;10.90;99.90;;;;;;4939527;29;20094;-93
2021/08/02 04:23:12;;;;;;;3.28;1.80;;;10.90;99.90;;;;;;4939336;29;20055;-93
2021/08/02 04:25:38;;;;;;;5.03;2.03;;;10.80;99.90;;;;;;4939339;29;20128;-93
2021/08/02 04:28:03;;;;;;;3.20;2.05;;;10.80;99.90;;;;;;4939309;29;20028;-93
2021/08/02 04:30:29;;;;;;;6.70;2.50;;;10.80;99.90;;;;;;4939253;29;20171;-94
2021/08/02 04:32:55;;;;;;;5.07;1.90;;;10.80;99.90;;;;;;4939095;29;20035;-93
2021/08/02 04:35:20;;;;;;;2.65;1.92;;;10.70;99.90;;;;;;4939641;29;20027;-93
2021/08/02 04:37:46;;;;;;;5.28;2.03;;;10.70;99.90;;;;;;4939300;29;20394;-93
2021/08/02 04:40:12;;;;;;;4.97;2.15;;;10.80;99.90;;;;;;4940037;29;20066;-94
2021/08/02 04:42:38;;;;;;;6.82;2.22;;;10.70;99.90;;;;;;4938852;29;20023;-93
2021/08/02 04:45:05;;;;;;;5.15;2.80;;;10.80;99.90;;;;;;4938661;29;20146;-94
2021/08/02 04:47:31;;;;;;;4.68;2.08;;;10.80;99.90;;;;;;4938920;29;20075;-95
2021/08/02 04:49:57;;;;;;;3.72;2.00;;;10.80;99.90;;;;;;4938777;29;20027;-94
2021/08/02 04:52:23;;;;;;;8.55;1.90;;;10.80;99.90;;;;;;4938879;29;20638;-95
2021/08/02 04:54:49;;;;;;;8.02;2.10;;;10.80;99.90;;;;;;4939656;29;20045;-94
2021/08/02 04:57:14;;;;;;;6.93;2.13;;;10.80;99.90;;;;;;4939148;29;20087;-94
2021/08/02 04:59:42;;;;;;;5.25;2.15;;;10.80;99.90;;;;;;4938476;29;20097;-93
2021/08/02 05:02:08;;;;;;;2.35;1.85;;;10.80;99.90;;;;;;4938575;29;20036;-92
2021/08/02 05:04:34;;;;;;;7.35;2.10;;;10.70;99.90;;;;;;4938895;29;20387;-94
2021/08/02 05:06:59;;;;;;;4.40;1.92;;;10.70;99.90;;;;;;4938580;29;20035;-93
2021/08/02 05:09:25;;;;;;;7.15;2.25;;;10.80;99.90;;;;;;4938289;29;20138;-91
2021/08/02 05:11:54;;;;;;;5.38;2.45;;;10.80;99.90;;;;;;4938695;29;20489;-94
2021/08/02 05:14:19;;;;;;;4.75;2.13;;;10.80;99.90;;;;;;4939556;29;20032;-92
2021/08/02 05:16:45;;;;;;;4.40;2.10;;;10.90;99.90;;;;;;4921440;29;20043;-92
2021/08/02 05:19:12;;;;;;;3.83;2.10;;;10.90;99.90;;;;;;4919451;29;20119;-91
2021/08/02 05:21:38;;;;;;;6.65;2.33;;;10.90;99.90;;;;;;4919684;29;20032;-91
2021/08/02 05:24:04;;;;;;;7.75;2.63;;;10.90;99.90;;;;;;4920594;29;20028;-92
2021/08/02 05:26:30;;;;;;;6.38;2.42;;;10.90;99.90;;;;;;4918482;29;20028;-91
2021/08/02 05:28:56;;;;;;;5.82;2.83;;;10.90;99.90;;;;;;4919403;29;20031;-92
2021/08/02 05:31:21;;;;;;;5.47;2.03;;;10.90;99.90;;;;;;4919229;29;20032;-91
2021/08/02 05:33:47;;;;;;;4.13;2.45;;;10.90;99.90;;;;;;4919435;29;20039;-93
2021/08/02 05:36:13;;;;;;;4.43;2.05;;;10.90;99.90;;;;;;4933921;29;20482;-91
2021/08/02 05:38:39;;;;;;;4.68;2.30;;;10.90;99.90;;;;;;4938200;29;20034;-93
2021/08/02 05:41:05;;;;;;;4.80;2.00;;;10.90;99.90;;;;;;4937735;29;20043;-92
2021/08/02 05:43:31;;;;;;;5.30;2.20;;;10.90;99.90;;;;;;4936704;29;20051;-93
2021/08/02 05:45:57;;;;;;;4.38;2.03;;;11.00;99.90;;;;;;4920492;29;20083;-92
2021/08/02 05:48:23;;;;;;;5.93;2.20;;;11.00;99.90;;;;;;4920846;29;20107;-93
2021/08/02 05:50:49;;;;;;;4.53;2.45;;;11.00;99.90;;;;;;4922354;29;20055;-93
2021/08/02 05:53:15;;;;;;;5.30;2.20;;;11.00;99.90;;;;;;4923836;29;20020;-94
2021/08/02 05:55:40;;;;;;;4.10;2.30;;;11.10;99.90;;;;;;4927833;29;20032;-93
2021/08/02 05:58:06;;;;;;;5.60;2.35;;;11.10;99.90;;;;;;4928941;29;20035;-93
2021/08/02 06:00:32;;;;;;;5.32;2.20;;;11.10;99.90;;;;;;4931370;29;20050;-94
2021/08/02 06:02:57;;;;;;;4.85;2.25;;;11.20;99.90;;;;;;4926570;29;20024;-93
2021/08/02 06:05:23;;;;;;;4.57;2.47;;;11.30;99.90;;;;;;4924941;29;20489;-93
2021/08/02 06:07:49;;;;;;;4.38;2.08;;;11.30;99.90;;;;;;4921462;29;20043;-93
2021/08/02 06:10:14;;;;;;;9.70;2.60;;;11.30;99.90;;;;;;4918785;29;20032;-93
2021/08/02 06:12:40;;;;;;;4.18;2.40;;;11.40;99.90;;;;;;4920629;29;20422;-93
2021/08/02 06:15:06;;;;;;;5.20;2.50;;;11.50;99.90;;;;;;4919702;29;20420;-93
2021/08/02 06:17:32;;;;;;;4.57;2.83;;;11.50;99.90;;;;;;4918814;29;20035;-93
2021/08/02 06:19:58;;;;;;;6.93;2.55;;;11.50;99.90;;;;;;4922047;29;20039;-92
2021/08/02 06:22:23;;;;;;;5.68;2.30;;;11.60;99.90;;;;;;4920220;29;20049;-94
2021/08/02 06:24:49;;;;;;;7.88;2.20;;;11.60;99.90;;;;;;4920270;29;20433;-94
2021/08/02 06:27:15;;;;;;;4.70;2.40;;;11.60;99.90;;;;;;4918577;29;20041;-92
2021/08/02 06:29:41;;;;;;;6.95;2.60;;;11.70;99.90;;;;;;4920571;29;20375;-94
2021/08/02 06:32:07;;;;;;;4.60;2.47;;;11.70;99.90;;;;;;4920612;29;20030;-93
2021/08/02 06:34:35;;;;;;;6.65;2.42;;;11.80;99.90;;;;;;4920363;29;20032;-92
2021/08/02 06:37:00;;;;;;;6.07;3.13;;;11.90;99.90;;;;;;4918655;29;20039;-95
2021/08/02 06:39:26;;;;;;;8.20;2.75;;;11.90;99.90;;;;;;4919114;29;20032;-94
2021/08/02 06:41:53;;;;;;;3.83;2.20;;;12.00;99.90;;;;;;4921269;29;20122;-94
2021/08/02 06:44:18;;;;;;;5.05;2.10;;;12.10;99.90;;;;;;4925911;29;20044;-94
2021/08/02 06:46:44;;;;;;;5.80;2.40;;;12.10;99.90;;;;;;4936143;29;20038;-93
2021/08/02 06:49:10;;;;;;;10.90;2.38;;;12.20;99.90;;;;;;4936159;29;20429;-94
2021/08/02 06:51:35;;;;;;;5.65;2.40;;;12.30;99.90;;;;;;4936210;29;20026;-94
2021/08/02 06:54:01;;;;;;;6.13;2.22;;;12.30;99.90;;;;;;4935385;29;20051;-95
2021/08/02 06:56:27;;;;;;;5.78;2.65;;;12.40;99.90;;;;;;4932888;29;20031;-95
2021/08/02 06:58:52;;;;;;;8.02;2.50;;;12.40;99.90;;;;;;4937090;29;20086;-95
2021/08/02 07:01:18;;;;;;;3.58;2.30;;;12.50;99.90;;;;;;4936531;29;20039;-95
2021/08/02 07:03:44;;;;;;;7.00;2.70;;;12.60;99.90;;;;;;4937854;29;20089;-94
2021/08/02 07:06:10;;;;;;;9.55;2.78;;;12.60;99.90;;;;;;4936812;29;20102;-94
2021/08/02 07:08:39;;;;;;;6.88;2.80;;;12.70;99.90;;;;;;4937264;29;20038;-95
2021/08/02 07:11:06;;;;;;;3.42;2.33;;;12.80;99.90;;;;;;4947015;29;20028;-94
2021/08/02 07:13:33;;;;;;;3.65;2.45;;;12.80;99.90;;;;;;4951891;29;20023;-94
2021/08/02 07:16:00;;;;;;;8.77;2.20;;;13.00;99.90;;;;;;4943961;29;20042;-94
2021/08/02 07:18:27;;;;;;;10.65;2.30;;;13.10;99.90;;;;;;4935511;29;20115;-92
2021/08/02 07:20:52;;;;;;;5.53;2.55;;;13.20;99.90;;;;;;4936066;29;20032;-94
2021/08/02 07:23:18;;;;;;;6.85;2.03;;;13.40;99.90;;;;;;4934745;29;20022;-95
2021/08/02 07:25:44;;;;;;;4.15;2.13;;;13.40;99.90;;;;;;4935872;29;20111;-95
2021/08/02 07:28:10;;;;;;;4.93;2.40;;;13.50;99.90;;;;;;4932584;29;20523;-93
2021/08/02 07:30:36;;;;;;;9.73;2.80;;;13.60;99.90;;;;;;4933626;29;20382;-93
2021/08/02 07:33:02;;;;;;;4.30;2.38;;;13.80;99.90;;;;;;4947721;29;20030;-93
2021/08/02 07:35:29;;;;;;;6.25;2.80;;;13.80;99.90;;;;;;4934809;29;20031;-93
2021/08/02 07:37:54;;;;;;;7.05;2.60;;;14.00;99.90;;;;;;4932902;29;20032;-93
2021/08/02 07:40:20;;;;;;;6.05;2.22;;;14.10;99.90;;;;;;4922948;29;20508;-94
2021/08/02 07:42:47;;;;;;;11.30;2.42;;;14.30;99.90;;;;;;4933319;29;20347;-92
2021/08/02 07:45:13;;;;;;;7.20;2.50;;;14.40;99.90;;;;;;4915102;29;20075;-93
2021/08/02 07:47:39;;;;;;;4.68;2.42;;;14.50;99.90;;;;;;4914352;29;20494;-92
2021/08/02 07:50:05;;;;;;;5.05;2.20;;;14.70;99.90;;;;;;4921371;29;20132;-92
2021/08/02 07:52:32;;;;;;;8.95;2.33;;;14.80;99.90;;;;;;4929739;29;20051;-94
2021/08/02 07:54:58;;;;;;;8.48;2.38;;;14.90;99.90;;;;;;4931697;29;20030;-94
2021/08/02 07:57:24;;;;;;;8.60;2.30;;;15.10;99.90;;;;;;4933809;29;20034;-94
2021/08/02 07:59:50;;;;;;;5.22;2.17;;;15.20;99.90;;;;;;4933450;29;20024;-94
2021/08/02 08:02:16;;;;;;;4.78;2.20;;;15.30;99.90;;;;;;4932228;29;20036;-93
2021/08/02 08:04:42;;;;;;;8.50;2.10;;;15.40;99.90;;;;;;4933974;29;20367;-95
2021/08/02 08:07:07;;;;;;;4.60;1.90;;;15.50;99.90;;;;;;4935219;29;20141;-94
2021/08/02 08:09:34;;;;;;;4.30;2.15;;;15.60;99.90;;;;;;4936348;29;20441;-93
2021/08/02 08:12:00;;;;;;;10.13;2.15;;;15.70;99.90;;;;;;4942805;29;20075;-94
2021/08/02 08:14:25;;;;;;;7.60;1.80;;;15.90;99.90;;;;;;4955048;29;20035;-95
2021/08/02 08:16:51;;;;;;;5.25;1.98;;;15.90;99.90;;;;;;4955620;28;20023;-94
2021/08/02 08:19:17;;;;;;;4.60;1.95;;;16.00;99.90;;;;;;4955934;29;20032;-94
2021/08/02 08:21:43;;;;;;;6.43;2.00;;;16.10;99.90;;;;;;4955962;29;20039;-94
2021/08/02 08:24:09;;;;;;;10.60;2.13;;;16.10;99.90;;;;;;4944852;29;20051;-95
2021/08/02 08:26:35;;;;;;;5.30;2.22;;;16.20;99.90;;;;;;4919545;29;20142;-93
2021/08/02 08:29:01;;;;;;;5.90;1.73;;;16.20;99.90;;;;;;4925647;29;20032;-93
2021/08/02 08:31:27;;;;;;;10.10;1.95;;;16.30;99.90;;;;;;4938203;29;20036;-93
2021/08/02 08:33:54;;;;;;;14.95;2.28;;;16.40;99.90;;;;;;4936251;29;20023;-93
2021/08/02 08:36:19;;;;;;;7.28;2.22;;;16.40;99.90;;;;;;4952338;29;20043;-93
2021/08/02 08:38:45;;;;;;;5.00;1.70;;;16.50;99.90;;;;;;4950704;29;20028;-95
2021/08/02 08:41:13;;;;;;;4.60;1.85;;;16.50;99.90;;;;;;4951130;29;20565;-93
2021/08/02 08:43:40;;;;;;;9.45;2.30;;;16.60;99.90;;;;;;4944070;29;20035;-93
2021/08/02 08:46:06;;;;;;;5.88;1.92;;;16.60;99.90;;;;;;4934608;29;20123;-94
2021/08/02 08:48:32;;;;;;;6.82;1.98;;;16.60;99.90;;;;;;4934995;29;20028;-93
2021/08/02 08:51:01;;;;;;;8.82;1.95;;;16.60;99.90;;;;;;4934703;29;20082;-95
2021/08/02 08:53:28;;;;;;;9.53;2.20;;;16.70;99.90;;;;;;4927332;29;20038;-94
2021/08/02 08:55:54;;;;;;;4.78;1.58;;;16.70;99.90;;;;;;4932836;29;20055;-96
2021/08/02 08:58:20;;;;;;;6.57;1.92;;;16.80;99.90;;;;;;4937826;29;20092;-94
2021/08/02 09:00:46;;;;;;;7.57;2.33;;;16.90;99.90;;;;;;4918334;29;20123;-94
2021/08/02 09:03:13;;;;;;;8.85;2.20;;;16.90;99.90;;;;;;4920037;29;20055;-94
2021/08/02 09:05:40;;;;;;;7.05;2.03;;;17.00;99.90;;;;;;4920085;29;20032;-95
2021/08/02 09:08:07;;;;;;;10.32;2.40;;;17.00;99.90;;;;;;4919887;29;20032;-96
2021/08/02 09:10:34;;;;;;;3.30;1.63;;;17.00;99.90;;;;;;4934956;29;20035;-94
2021/08/02 09:13:07;;;;;;;7.50;2.40;;;17.10;99.80;;;;;;4938096;29;20034;-93
2021/08/02 09:15:37;;;;;;;11.82;2.92;;;17.20;99.60;;;;;;4938540;29;20047;-95
2021/08/02 09:18:07;;;;;;;9.27;2.30;;;17.30;99.40;;;;;;4939506;29;20044;-93
2021/08/02 09:20:33;;;;;;;6.35;2.80;;;17.30;99.00;;;;;;4938349;29;20863;-93
2021/08/02 09:23:10;;;;;;;6.72;2.60;;;17.40;98.80;;;;;;4938729;29;20055;-93
2021/08/02 09:25:46;;;;;;;6.78;2.22;;;17.30;98.40;;;;;;4938497;29;20497;-93
2021/08/02 09:28:14;;;;;;;6.63;2.30;;;17.40;98.30;;;;;;4925539;29;20100;-92
2021/08/02 09:30:51;;;;;;;14.30;2.53;;;17.40;98.20;;;;;;4941007;29;20083;-92
2021/08/02 09:33:17;;;;;;;5.00;2.60;;;17.50;98.20;;;;;;4938312;29;20074;-93
2021/08/02 09:35:42;;;;;;;8.02;2.65;;;17.60;98.20;;;;;;4938877;29;20023;-92
2021/08/02 09:38:11;;;;;;;9.38;2.53;;;17.60;97.90;;;;;;4937758;29;20028;-94
2021/08/02 09:40:42;;;;;;;7.90;2.42;;;17.70;97.50;;;;;;4938317;29;20044;-93
2021/08/02 09:43:26;;;;;;;6.53;2.30;;;17.80;97.30;;;;;;4938118;29;20024;-93
2021/08/02 09:45:57;;;;;;;11.48;2.63;;;18.00;96.90;;;;;;4940564;29;20070;-94
2021/08/02 09:48:44;;;;;;;11.00;2.95;;;18.20;96.60;;;;;;4940665;29;20020;-93
2021/08/02 09:51:09;;;;;;;8.98;3.67;;;18.20;95.90;;;;;;4946902;29;20032;-93
2021/08/02 09:53:57;;;;;;;7.32;2.80;;;18.40;95.80;;;;;;4947696;29;20090;-93
2021/08/02 09:56:25;;;;;;;8.27;3.50;;;18.50;95.50;;;;;;4940689;29;20040;-94
2021/08/02 09:58:50;;;;;;;6.82;2.88;;;18.60;94.80;;;;;;4939645;29;20039;-94
2021/08/02 10:01:18;;;;;;;7.22;2.65;;;18.70;94.60;;;;;;4927632;29;20048;-93
2021/08/02 10:03:45;;;;;;;7.65;3.00;;;18.80;93.90;;;;;;4948343;29;20024;-94
2021/08/02 10:06:13;;;;;;;6.43;2.58;;;18.80;93.40;;;;;;4942194;29;20028;-93
2021/08/02 10:08:39;;;;;;;7.72;2.92;;;19.00;93.10;;;;;;4932792;29;20024;-94
2021/08/02 10:11:06;;;;;;;7.20;3.10;;;19.00;92.50;;;;;;4935781;29;20071;-94
2021/08/02 10:13:35;;;;;;;3.90;2.40;;;19.20;92.10;;;;;;4935652;29;20035;-92
2021/08/02 10:16:04;;;;;;;8.10;2.40;;;19.40;91.70;;;;;;4937289;29;20048;-94
2021/08/02 10:18:31;;;;;;;7.37;2.27;;;19.50;90.90;;;;;;4937139;29;20102;-94
2021/08/02 10:21:11;;;;;;;3.75;2.03;;;19.50;90.40;;;;;;4937058;29;20299;-94
2021/08/02 10:23:38;;;;;;;8.77;2.00;;;19.50;89.50;;;;;;4936651;29;20027;-93
2021/08/02 10:26:16;;;;;;;5.45;2.20;;;19.50;87.90;;;;;;4936991;29;20177;-94
2021/08/02 10:28:57;;;;;;;4.68;2.05;;;19.40;86.80;;;;;;4936078;29;20511;-92
2021/08/02 10:31:27;;;;;;;3.92;1.90;;;19.30;86.60;;;;;;4936248;29;20048;-92
2021/08/02 10:33:54;;;;;;;7.80;2.40;;;19.30;84.80;;;;;;4937179;29;20027;-93
2021/08/02 10:36:21;;;;;;;3.92;2.60;;;19.30;85.20;;;;;;4936600;29;20047;-91
2021/08/02 10:38:49;;;;;;;6.97;2.35;;;19.30;84.40;;;;;;4936832;29;20036;-93
2021/08/02 10:41:30;;;;;;;9.35;2.85;;;19.40;84.30;;;;;;4935991;29;20146;-93
2021/08/02 10:43:57;;;;;;;4.53;1.98;;;19.50;84.50;;;;;;4936765;29;20059;-91
2021/08/02 10:46:25;;;;;;;3.75;1.83;;;19.60;83.60;;;;;;4937058;29;20036;-92
2021/08/02 10:49:06;;;;;;;6.60;2.55;;;19.70;83.50;;;;;;4920920;29;20573;-93
2021/08/02 10:51:32;;;;;;;5.72;2.08;;;19.70;83.10;;;;;;4936376;29;20036;-92
2021/08/02 10:54:03;;;;;;;6.07;1.70;;;19.80;82.90;;;;;;4935482;29;20035;-92
2021/08/02 10:56:32;;;;;;;3.72;1.50;;;19.80;82.40;;;;;;4935525;29;20027;-92
2021/08/02 10:58:59;;;;;;;5.53;1.40;;;19.70;81.60;;;;;;4935303;29;20028;-93
2021/08/02 11:01:26;;;;;;;8.13;1.63;;;19.60;81.60;;;;;;4935951;29;20047;-93
2021/08/02 11:03:54;;;;;;;3.97;1.40;;;19.40;80.40;;;;;;4936028;29;20020;-93
2021/08/02 11:06:19;;;;;;;5.70;1.40;;;19.20;79.30;;;;;;4935907;29;20039;-92
2021/08/02 11:08:48;;;;;;;2.97;1.50;;;19.00;78.30;;;;;;4935449;29;20024;-92
2021/08/02 11:11:28;;;;;;;4.22;1.40;;;18.80;78.10;;;;;;4936134;29;20084;-94
2021/08/02 11:14:24;;;;;;;1.70;1.55;;;18.60;79.30;;;;;;4936359;29;20032;-93
2021/08/02 11:16:52;;;;;;;3.25;1.50;;;18.50;79.00;;;;;;4904453;29;20040;-93
2021/08/02 11:19:28;;;;;;;2.60;1.70;;;18.30;79.00;;;;;;4917215;29;20090;-92
2021/08/02 11:21:57;;;;;;;5.03;1.60;;;18.20;79.50;;;;;;4917454;29;20458;-94
2021/08/02 11:24:24;;;;;;;4.13;1.60;;;18.20;79.50;;;;;;4930777;29;20666;-93
2021/08/02 11:26:56;;;;;;;1.90;1.60;;;18.10;79.70;;;;;;4926043;29;20107;-93
2021/08/02 11:29:26;;;;;;;6.90;1.48;;;18.10;80.30;;;;;;4936138;29;20028;-93
2021/08/02 11:31:58;;;;;;;5.88;2.08;;;18.10;81.20;;;;;;4928103;29;20024;-95
2021/08/02 11:34:25;;;;;;;3.97;1.88;;;18.20;81.80;;;;;;4931888;29;20038;-92
2021/08/02 11:37:01;;;;;;;5.65;2.25;;;18.20;82.40;;;;;;4934993;29;20024;-93
2021/08/02 11:39:28;;;;;;;8.52;2.20;;;18.10;83.40;;;;;;4933949;29;20453;-92
2021/08/02 11:42:04;;;;;;;5.22;2.67;;;18.10;84.30;;;;;;4934420;29;20727;-92
2021/08/02 11:44:30;;;;;;;9.13;3.10;;;18.00;85.50;;;;;;4935249;29;20186;-92
2021/08/02 11:46:56;;;;;;;7.95;3.42;;;17.90;86.20;;;;;;4936509;29;20036;-92
2021/08/02 11:49:23;;;;;;;4.95;3.08;;;17.90;87.00;;;;;;4936063;29;20024;-92
2021/08/02 11:51:49;;;;;;;6.85;2.90;;;17.80;87.50;;;;;;4930291;29;20032;-93
2021/08/02 11:54:23;;;;;;;6.78;2.42;;;17.80;88.30;;;;;;4919910;29;20100;-91
2021/08/02 11:56:49;;;;;;;6.28;3.33;;;17.80;89.20;;;;;;4917458;29;20029;-90
2021/08/02 11:59:26;;;;;;;7.30;4.00;;;17.80;89.80;;;;;;4916596;29;20497;-91
2021/08/02 12:01:56;;;;;;;8.57;3.28;;;17.80;90.30;;;;;;4915866;29;20123;-92
2021/08/02 12:04:23;;;;;;;8.23;3.88;;;17.80;90.60;;;;;;4916052;29;20088;-91
2021/08/02 12:06:55;;;;;;;7.90;4.00;;;17.90;90.80;;;;;;4926956;29;20036;-92
2021/08/02 12:09:33;;;;;;;5.70;3.58;;;17.90;91.10;;;;;;4935113;29;20144;-91
2021/08/02 12:12:01;;;;;;;8.75;3.58;;;17.90;91.30;;;;;;4942104;29;20046;-92
2021/08/02 12:14:28;;;;;;;6.57;3.70;;;18.00;91.40;;;;;;4935214;29;20038;-94
2021/08/02 12:17:01;;;;;;;7.65;3.30;;;18.10;91.50;;;;;;4935003;29;20038;-93
2021/08/02 12:19:27;;;;;;;8.77;3.92;;;18.20;91.50;;;;;;4934651;29;20030;-92
2021/08/02 12:21:58;;;;;;;10.32;3.40;;;18.40;91.60;;;;;;4931576;29;20044;-91
2021/08/02 12:24:24;;;;;;;6.85;3.70;;;18.40;91.30;;;;;;4918545;29;20479;-92
2021/08/02 12:26:53;;;;;;;5.22;3.42;;;18.50;91.40;;;;;;4915795;29;20038;-92
2021/08/02 12:29:29;;;;;;;7.38;3.47;;;18.60;91.40;;;;;;4921977;29;20431;-92
2021/08/02 12:32:00;;;;;;;8.30;3.60;;;18.80;91.20;;;;;;4934800;29;20055;-93
2021/08/02 12:34:28;;;;;;;9.15;3.58;;;19.10;91.10;;;;;;4935985;29;20031;-92
2021/08/02 12:36:55;;;;;;;6.57;3.50;;;19.40;90.70;;;;;;4938865;29;20035;-93
2021/08/02 12:39:22;;;;;;;7.38;3.33;;;19.60;89.80;;;;;;4938317;29;20513;-93
2021/08/02 12:41:48;;;;;;;5.78;2.85;;;19.80;89.00;;;;;;4937809;29;20155;-94
2021/08/02 12:44:13;;;;;;;6.55;3.15;;;20.00;88.30;;;;;;4938259;29;20569;-92
2021/08/02 12:46:39;;;;;;;5.93;2.58;;;20.30;86.50;;;;;;4938087;29;20036;-92
2021/08/02 12:49:04;;;;;;;4.05;2.08;;;20.50;84.30;;;;;;4937787;29;20032;-92
2021/08/02 12:51:30;;;;;;;4.30;2.50;;;20.60;81.50;;;;;;4938539;29;20028;-92